Time;durP1;ratioP1;P1;durP2;ratioP2;P2;SDS_P1;SDS_P2;PMS_P1;PMS_P2;Temp;Humidity;BMP_temperature;BMP_pressure;BME280_temperature;BME280_humidity;BME280_pressure;Samples;Min_cycle;Max_cycle;Signal;HPM_P1;HPM_P2
2024/01/31 00:01:33;;;;;;;9.43;2.22;;;6.10;99.90;;;;;;5029792;28;20118;-84
2024/01/31 00:03:59;;;;;;;7.38;1.58;;;6.00;99.90;;;;;;5047719;28;20049;-84
2024/01/31 00:06:25;;;;;;;7.95;1.50;;;6.20;99.90;;;;;;5030299;28;20044;-79
2024/01/31 00:08:51;;;;;;;7.15;1.73;;;6.00;99.90;;;;;;5030298;28;20120;-84
2024/01/31 00:11:16;;;;;;;8.32;1.52;;;6.10;99.90;;;;;;5013080;28;20479;-84
2024/01/31 00:13:42;;;;;;;9.57;2.10;;;6.10;99.90;;;;;;5014168;28;20391;-84
2024/01/31 00:16:08;;;;;;;7.82;1.92;;;6.00;99.90;;;;;;5035816;28;20045;-84
2024/01/31 00:18:34;;;;;;;8.27;1.80;;;6.10;99.90;;;;;;5033630;28;20053;-84
2024/01/31 00:21:00;;;;;;;9.75;1.70;;;6.10;99.90;;;;;;5015440;28;20052;-84
2024/01/31 00:23:25;;;;;;;8.98;2.35;;;6.10;99.90;;;;;;5042967;28;20038;-85
2024/01/31 00:25:51;;;;;;;8.57;2.13;;;6.10;99.90;;;;;;5029951;28;20099;-85
2024/01/31 00:28:17;;;;;;;7.47;2.15;;;6.00;99.90;;;;;;5063400;28;20409;-85
2024/01/31 00:30:43;;;;;;;10.02;1.60;;;6.00;99.90;;;;;;5036356;28;20033;-84
2024/01/31 00:33:09;;;;;;;5.40;1.60;;;6.00;99.90;;;;;;5039945;28;20383;-85
2024/01/31 00:35:35;;;;;;;7.50;1.80;;;6.00;99.90;;;;;;5034807;28;20057;-83
2024/01/31 00:38:00;;;;;;;11.20;1.95;;;6.00;99.90;;;;;;5039413;28;20045;-85
2024/01/31 00:40:26;;;;;;;5.95;1.65;;;6.00;99.90;;;;;;5022268;28;20399;-84
2024/01/31 00:42:51;;;;;;;10.60;2.03;;;6.00;99.90;;;;;;5004672;28;20037;-84
2024/01/31 00:45:18;;;;;;;4.63;1.50;;;6.00;99.90;;;;;;5038709;28;20059;-83
2024/01/31 00:47:43;;;;;;;7.13;1.73;;;6.00;99.90;;;;;;5037421;28;20041;-84
2024/01/31 00:50:12;;;;;;;8.32;1.70;;;6.00;99.90;;;;;;5038430;28;20390;-84
2024/01/31 00:52:40;;;;;;;9.18;2.05;;;6.00;99.90;;;;;;5032556;28;20050;-78
2024/01/31 00:55:06;;;;;;;9.10;1.77;;;6.00;99.90;;;;;;5032914;28;20037;-84
2024/01/31 00:57:32;;;;;;;6.00;1.38;;;5.90;99.90;;;;;;5033631;28;20049;-78
2024/01/31 00:59:58;;;;;;;6.32;1.35;;;6.00;99.90;;;;;;5050324;28;20102;-84
2024/01/31 01:02:23;;;;;;;6.28;1.48;;;6.00;99.90;;;;;;5033641;28;20124;-83
2024/01/31 01:04:49;;;;;;;10.07;1.70;;;6.00;99.90;;;;;;5032859;28;20447;-82
2024/01/31 01:07:15;;;;;;;6.25;1.50;;;6.00;99.90;;;;;;5033394;28;20076;-83
2024/01/31 01:09:40;;;;;;;7.57;1.70;;;6.00;99.90;;;;;;5034156;28;20114;-83
2024/01/31 01:12:06;;;;;;;7.95;1.42;;;6.00;99.90;;;;;;5033502;28;20490;-83
2024/01/31 01:14:32;;;;;;;7.70;1.52;;;6.00;99.90;;;;;;5025669;28;20033;-83
2024/01/31 01:16:57;;;;;;;6.40;1.50;;;6.00;99.90;;;;;;5032253;28;20045;-84
2024/01/31 01:19:23;;;;;;;5.38;1.35;;;5.90;99.90;;;;;;5020808;28;20121;-84
2024/01/31 01:21:50;;;;;;;7.35;1.65;;;5.90;99.90;;;;;;5032792;28;20041;-83
2024/01/31 01:24:16;;;;;;;7.13;1.33;;;6.00;99.90;;;;;;5032435;28;20048;-83
2024/01/31 01:26:41;;;;;;;9.93;1.75;;;5.90;99.90;;;;;;5031063;28;20041;-83
2024/01/31 01:29:09;;;;;;;9.68;1.55;;;6.00;99.90;;;;;;5033310;28;20045;-83
2024/01/31 01:31:34;;;;;;;5.53;1.60;;;5.90;99.90;;;;;;5034140;28;20048;-83
2024/01/31 01:34:00;;;;;;;6.80;1.80;;;5.90;99.90;;;;;;5033730;28;20046;-81
2024/01/31 01:36:26;;;;;;;7.85;1.77;;;6.00;99.90;;;;;;5032265;28;20046;-83
2024/01/31 01:38:52;;;;;;;5.78;1.30;;;5.90;99.90;;;;;;5064116;28;20116;-81
2024/01/31 01:41:18;;;;;;;4.30;1.30;;;6.00;99.90;;;;;;5032773;28;20036;-83
2024/01/31 01:43:43;;;;;;;6.38;1.70;;;5.90;99.90;;;;;;5016761;28;20136;-83
2024/01/31 01:46:20;;;;;;;6.28;1.58;;;5.90;99.90;;;;;;5033487;28;20045;-84
2024/01/31 01:48:47;;;;;;;7.68;2.00;;;5.90;99.90;;;;;;5033337;28;20045;-83
2024/01/31 01:51:17;;;;;;;4.93;1.40;;;5.90;99.90;;;;;;5031792;28;20049;-82
2024/01/31 01:53:44;;;;;;;8.40;1.60;;;5.90;99.90;;;;;;5033294;28;20041;-82
2024/01/31 01:56:11;;;;;;;3.47;1.25;;;5.90;99.90;;;;;;5033590;28;20080;-83
2024/01/31 01:58:37;;;;;;;9.00;1.48;;;5.90;99.90;;;;;;5033920;28;20041;-83
2024/01/31 02:01:03;;;;;;;3.78;1.13;;;5.90;99.90;;;;;;5033968;28;20133;-83
2024/01/31 02:03:30;;;;;;;5.38;1.45;;;5.80;99.90;;;;;;5031990;28;20073;-83
2024/01/31 02:06:03;;;;;;;4.70;1.05;;;5.80;99.90;;;;;;5033344;28;20042;-83
2024/01/31 02:08:30;;;;;;;7.40;1.23;;;5.80;99.90;;;;;;5031089;28;20112;-84
2024/01/31 02:10:56;;;;;;;5.30;1.58;;;5.80;99.90;;;;;;5048407;28;20057;-83
2024/01/31 02:13:22;;;;;;;5.05;1.52;;;5.80;99.90;;;;;;5032052;28;20041;-83
2024/01/31 02:15:56;;;;;;;7.38;1.67;;;5.80;99.90;;;;;;5031449;28;20065;-83
2024/01/31 02:18:24;;;;;;;6.47;1.48;;;5.70;99.90;;;;;;5013503;28;20088;-83
2024/01/31 02:20:50;;;;;;;11.90;2.15;;;5.70;99.90;;;;;;5064330;28;20045;-83
2024/01/31 02:23:15;;;;;;;8.43;1.38;;;5.70;99.90;;;;;;5048567;28;20083;-83
2024/01/31 02:25:41;;;;;;;7.72;1.50;;;5.70;99.90;;;;;;5031956;28;20045;-83
2024/01/31 02:28:08;;;;;;;9.68;2.08;;;5.70;99.90;;;;;;5030677;28;20045;-83
2024/01/31 02:30:33;;;;;;;4.80;1.52;;;5.60;99.90;;;;;;5032439;28;20092;-82
2024/01/31 02:32:59;;;;;;;8.40;1.77;;;5.60;99.90;;;;;;5032541;28;20069;-83
2024/01/31 02:35:25;;;;;;;5.97;1.60;;;5.60;99.90;;;;;;4998305;28;20143;-82
2024/01/31 02:37:51;;;;;;;7.70;2.00;;;5.60;99.90;;;;;;5031112;28;20034;-82
2024/01/31 02:40:16;;;;;;;6.80;2.15;;;5.60;99.90;;;;;;5013319;28;20064;-83
2024/01/31 02:42:43;;;;;;;7.43;1.88;;;5.60;99.90;;;;;;5032922;28;20120;-83
2024/01/31 02:45:09;;;;;;;7.93;1.80;;;5.60;99.90;;;;;;5031296;28;20045;-83
2024/01/31 02:47:36;;;;;;;5.80;2.10;;;5.60;99.90;;;;;;5031829;28;20088;-83
2024/01/31 02:50:03;;;;;;;6.97;1.98;;;5.60;99.90;;;;;;5030598;28;20042;-83
2024/01/31 02:52:28;;;;;;;6.38;1.60;;;5.60;99.90;;;;;;5029260;28;20044;-83
2024/01/31 02:54:54;;;;;;;6.65;1.90;;;5.50;99.90;;;;;;5022120;28;20041;-83
2024/01/31 02:57:20;;;;;;;6.93;2.10;;;5.50;99.90;;;;;;5032705;28;20083;-83
2024/01/31 02:59:46;;;;;;;6.95;1.60;;;5.50;99.90;;;;;;5030958;28;20053;-83
2024/01/31 03:02:14;;;;;;;6.05;1.63;;;5.50;99.90;;;;;;5030513;28;20048;-83
2024/01/31 03:04:40;;;;;;;5.88;1.50;;;5.50;99.90;;;;;;5046509;28;20052;-83
2024/01/31 03:07:06;;;;;;;6.55;2.13;;;5.50;99.90;;;;;;5064319;28;20037;-83
2024/01/31 03:09:32;;;;;;;6.65;2.22;;;5.50;99.90;;;;;;5047265;28;20100;-83
2024/01/31 03:11:58;;;;;;;5.40;1.60;;;5.50;99.90;;;;;;5030584;28;20049;-82
2024/01/31 03:14:23;;;;;;;5.63;1.52;;;5.50;99.90;;;;;;5030951;28;20045;-83
2024/01/31 03:16:49;;;;;;;5.28;1.45;;;5.50;99.90;;;;;;5047715;28;20040;-83
2024/01/31 03:19:15;;;;;;;5.00;1.80;;;5.50;99.90;;;;;;5013286;28;20120;-83
2024/01/31 03:21:41;;;;;;;7.85;2.22;;;5.50;99.90;;;;;;5032092;28;20426;-83
2024/01/31 03:24:07;;;;;;;10.48;2.00;;;5.50;99.90;;;;;;5030581;28;20038;-83
2024/01/31 03:26:32;;;;;;;9.68;2.33;;;5.50;99.90;;;;;;5030601;28;20044;-83
2024/01/31 03:29:01;;;;;;;6.28;1.80;;;5.50;99.90;;;;;;5031676;28;20605;-83
2024/01/31 03:31:27;;;;;;;5.88;2.05;;;5.50;99.90;;;;;;4997986;28;20041;-82
2024/01/31 03:33:53;;;;;;;8.55;2.25;;;5.50;99.90;;;;;;5031898;28;20041;-76
2024/01/31 03:36:18;;;;;;;5.45;1.92;;;5.50;99.90;;;;;;5030396;28;20051;-83
2024/01/31 03:38:44;;;;;;;5.38;1.75;;;5.60;99.90;;;;;;5030354;28;20095;-83
2024/01/31 03:41:10;;;;;;;5.88;1.63;;;5.50;99.90;;;;;;5024862;28;20096;-83
2024/01/31 03:43:36;;;;;;;6.53;1.55;;;5.50;99.90;;;;;;5030876;28;20043;-83
2024/01/31 03:46:05;;;;;;;5.10;1.60;;;5.50;99.90;;;;;;5031406;28;20069;-83
2024/01/31 03:48:31;;;;;;;5.20;1.60;;;5.50;99.90;;;;;;5064025;28;20084;-83
2024/01/31 03:50:58;;;;;;;5.32;1.50;;;5.50;99.90;;;;;;5030205;28;20073;-82
2024/01/31 03:53:27;;;;;;;8.38;1.58;;;5.50;99.90;;;;;;5030402;28;20208;-82
2024/01/31 03:55:53;;;;;;;5.18;1.63;;;5.40;99.90;;;;;;5024627;28;20053;-82
2024/01/31 03:58:19;;;;;;;5.57;1.30;;;5.50;99.90;;;;;;5033777;28;20382;-83
2024/01/31 04:00:45;;;;;;;8.38;2.00;;;5.50;99.90;;;;;;5029910;28;20445;-83
2024/01/31 04:03:11;;;;;;;12.27;1.92;;;5.40;99.90;;;;;;5060310;28;20037;-82
2024/01/31 04:05:37;;;;;;;9.00;1.90;;;5.40;99.90;;;;;;5024796;28;20047;-82
2024/01/31 04:08:03;;;;;;;8.57;1.88;;;5.40;99.90;;;;;;5026504;28;20061;-82
2024/01/31 04:10:28;;;;;;;7.20;1.80;;;5.40;99.90;;;;;;5020383;28;20538;-83
2024/01/31 04:12:54;;;;;;;7.13;1.92;;;5.40;99.90;;;;;;5041876;28;20049;-83
2024/01/31 04:15:20;;;;;;;5.07;1.40;;;5.30;99.90;;;;;;5026278;28;20084;-79
2024/01/31 04:17:45;;;;;;;7.10;1.65;;;5.30;99.90;;;;;;5023894;28;20061;-82
2024/01/31 04:20:12;;;;;;;6.93;1.52;;;5.20;99.90;;;;;;5042475;28;20049;-82
2024/01/31 04:22:38;;;;;;;5.60;1.80;;;5.20;99.90;;;;;;5024679;28;20037;-82
2024/01/31 04:25:07;;;;;;;7.50;2.20;;;5.10;99.90;;;;;;5026035;28;20049;-82
2024/01/31 04:27:33;;;;;;;7.60;1.92;;;4.90;99.90;;;;;;5027367;28;20067;-82
2024/01/31 04:29:59;;;;;;;6.25;1.38;;;5.00;99.90;;;;;;5028221;28;20060;-82
2024/01/31 04:32:25;;;;;;;6.72;1.70;;;5.00;99.90;;;;;;5045411;28;20041;-82
2024/01/31 04:34:51;;;;;;;6.53;1.75;;;4.90;99.90;;;;;;5029099;28;20037;-82
2024/01/31 04:37:17;;;;;;;7.25;1.67;;;4.90;99.90;;;;;;5028851;28;20048;-82
2024/01/31 04:39:43;;;;;;;6.03;1.58;;;4.80;99.90;;;;;;5029308;28;20041;-82
2024/01/31 04:42:09;;;;;;;8.55;1.80;;;4.70;99.90;;;;;;5027140;28;20347;-81
2024/01/31 04:44:35;;;;;;;8.68;2.03;;;4.80;99.90;;;;;;5029581;28;20052;-81
2024/01/31 04:47:01;;;;;;;7.88;1.85;;;4.70;99.90;;;;;;5012902;28;20053;-81
2024/01/31 04:49:26;;;;;;;17.08;2.63;;;4.70;99.90;;;;;;5029170;28;20359;-81
2024/01/31 04:51:53;;;;;;;6.80;2.08;;;4.70;99.90;;;;;;5029822;28;20037;-81
2024/01/31 04:54:18;;;;;;;6.50;1.40;;;4.70;99.90;;;;;;5012095;28;20056;-81
2024/01/31 04:56:44;;;;;;;5.38;1.92;;;4.60;99.90;;;;;;5010882;28;20050;-81
2024/01/31 04:59:10;;;;;;;7.53;1.98;;;4.60;99.90;;;;;;5029463;28;20049;-81
2024/01/31 05:01:37;;;;;;;5.35;1.40;;;4.60;99.90;;;;;;5028791;28;20495;-81
2024/01/31 05:04:03;;;;;;;6.72;1.60;;;4.60;99.90;;;;;;5028841;28;20433;-82
2024/01/31 05:06:28;;;;;;;5.53;1.60;;;4.50;99.90;;;;;;5028104;28;20049;-81
2024/01/31 05:08:54;;;;;;;5.88;1.50;;;4.50;99.90;;;;;;5028530;28;20037;-82
2024/01/31 05:11:20;;;;;;;6.25;1.73;;;4.50;99.90;;;;;;4979875;28;1402473;-82
2024/01/31 05:13:46;;;;;;;9.65;1.70;;;4.50;99.90;;;;;;5013914;28;20048;-81
2024/01/31 05:16:11;;;;;;;5.28;1.20;;;4.50;99.90;;;;;;5028978;28;20053;-81
2024/01/31 05:18:37;;;;;;;6.30;1.42;;;4.50;99.90;;;;;;5033781;28;20120;-82
2024/01/31 05:21:04;;;;;;;7.53;1.77;;;4.60;99.90;;;;;;5033907;28;20052;-82
2024/01/31 05:23:29;;;;;;;6.22;1.50;;;4.50;99.90;;;;;;5016695;28;20038;-81
2024/01/31 05:25:55;;;;;;;5.78;1.88;;;4.50;99.90;;;;;;5034161;28;20045;-82
2024/01/31 05:28:21;;;;;;;5.32;1.58;;;4.50;99.90;;;;;;5032272;28;20143;-81
2024/01/31 05:30:47;;;;;;;7.60;1.88;;;4.60;99.90;;;;;;5066345;28;20386;-81
2024/01/31 05:33:13;;;;;;;7.45;1.73;;;4.60;99.90;;;;;;5066134;28;20041;-81
2024/01/31 05:35:38;;;;;;;6.65;1.55;;;4.60;99.90;;;;;;5032825;28;20052;-81
2024/01/31 05:38:05;;;;;;;6.43;2.05;;;4.70;99.90;;;;;;5016793;28;20046;-81
2024/01/31 05:40:31;;;;;;;4.47;1.55;;;4.60;99.90;;;;;;5032837;28;20049;-81
2024/01/31 05:42:57;;;;;;;4.65;1.27;;;4.60;99.90;;;;;;5034569;28;20044;-80
2024/01/31 05:45:23;;;;;;;5.60;1.38;;;4.80;99.90;;;;;;5033709;28;20168;-81
2024/01/31 05:47:49;;;;;;;4.85;1.73;;;4.60;99.90;;;;;;5016173;28;20135;-81
2024/01/31 05:50:15;;;;;;;7.07;2.05;;;4.80;99.90;;;;;;5031975;28;20042;-81
2024/01/31 05:52:41;;;;;;;5.85;1.35;;;4.70;99.90;;;;;;5031894;28;20045;-82
2024/01/31 05:55:07;;;;;;;6.95;1.73;;;4.70;99.90;;;;;;5030977;28;20038;-82
2024/01/31 05:57:33;;;;;;;7.68;1.85;;;4.60;99.90;;;;;;5032107;28;20049;-81
2024/01/31 05:59:59;;;;;;;7.45;1.88;;;4.70;99.90;;;;;;5033820;28;20044;-80
2024/01/31 06:02:24;;;;;;;7.88;2.60;;;4.70;99.90;;;;;;5015787;28;20045;-81
2024/01/31 06:04:50;;;;;;;7.45;1.90;;;4.70;99.90;;;;;;5016134;28;20078;-81
2024/01/31 06:07:16;;;;;;;4.43;1.60;;;4.80;99.90;;;;;;5020266;28;20036;-79
2024/01/31 06:09:42;;;;;;;10.43;1.88;;;4.80;99.90;;;;;;5031026;28;20053;-81
2024/01/31 06:12:08;;;;;;;5.88;1.65;;;4.80;99.90;;;;;;5030353;28;20060;-81
2024/01/31 06:14:37;;;;;;;7.25;1.90;;;4.80;99.90;;;;;;5019486;28;20637;-82
2024/01/31 06:17:06;;;;;;;5.95;1.60;;;4.80;99.90;;;;;;5039891;28;20421;-81
2024/01/31 06:19:31;;;;;;;5.82;1.70;;;4.80;99.90;;;;;;5029954;28;20044;-81
2024/01/31 06:21:57;;;;;;;6.53;2.20;;;4.80;99.90;;;;;;5033253;28;20045;-81
2024/01/31 06:24:23;;;;;;;4.90;1.70;;;5.30;99.90;;;;;;5029824;28;20057;-81
2024/01/31 06:26:49;;;;;;;10.80;1.90;;;4.80;99.90;;;;;;5048219;28;20069;-81
2024/01/31 06:29:18;;;;;;;5.53;2.22;;;4.80;99.90;;;;;;5046940;28;20085;-76
2024/01/31 06:31:48;;;;;;;8.07;2.40;;;5.00;99.90;;;;;;5010654;28;20069;-81
2024/01/31 06:34:15;;;;;;;7.47;2.00;;;4.80;99.90;;;;;;5048767;28;20500;-81
2024/01/31 06:36:40;;;;;;;7.80;2.50;;;4.90;99.90;;;;;;5026038;28;20069;-81
2024/01/31 06:39:06;;;;;;;7.15;1.95;;;4.90;99.90;;;;;;5029139;28;20076;-81
2024/01/31 06:41:34;;;;;;;9.82;2.00;;;4.80;99.90;;;;;;5027631;28;20434;-81
2024/01/31 06:44:00;;;;;;;8.85;1.92;;;5.00;99.90;;;;;;5029250;28;20038;-81
2024/01/31 06:46:26;;;;;;;13.90;2.78;;;4.90;99.90;;;;;;5028421;28;20051;-81
2024/01/31 06:48:51;;;;;;;8.30;2.08;;;4.90;99.90;;;;;;5026459;28;20041;-81
2024/01/31 06:51:17;;;;;;;9.93;2.53;;;4.90;99.90;;;;;;5028582;28;20168;-76
2024/01/31 06:53:44;;;;;;;9.45;2.60;;;4.90;99.90;;;;;;5017225;28;20498;-82
2024/01/31 06:56:16;;;;;;;9.35;2.47;;;5.00;99.90;;;;;;5037909;28;20113;-82
2024/01/31 06:58:44;;;;;;;11.38;2.42;;;4.90;99.90;;;;;;5014635;28;20045;-80
2024/01/31 07:01:12;;;;;;;13.52;2.80;;;5.00;99.90;;;;;;5026914;28;20174;-81
2024/01/31 07:03:38;;;;;;;6.32;2.25;;;5.00;99.90;;;;;;5031601;28;20160;-81
2024/01/31 07:06:04;;;;;;;8.13;2.10;;;5.00;99.90;;;;;;5025201;28;20128;-81
2024/01/31 07:08:30;;;;;;;10.80;2.35;;;5.00;99.90;;;;;;5019753;28;20084;-81
2024/01/31 07:10:56;;;;;;;8.77;2.10;;;5.00;99.90;;;;;;5027839;28;20045;-80
2024/01/31 07:13:21;;;;;;;9.73;1.73;;;5.00;99.90;;;;;;4992930;28;20050;-80
2024/01/31 07:15:47;;;;;;;8.68;1.90;;;5.00;99.90;;;;;;5051982;28;20045;-82
2024/01/31 07:18:13;;;;;;;8.88;1.95;;;5.10;99.90;;;;;;5020827;28;20049;-81
2024/01/31 07:20:39;;;;;;;10.13;2.03;;;5.10;99.90;;;;;;5033695;28;20048;-81
2024/01/31 07:23:05;;;;;;;9.70;2.30;;;5.10;99.90;;;;;;5028649;28;20048;-82
2024/01/31 07:25:30;;;;;;;9.40;2.22;;;5.10;99.90;;;;;;5056327;28;20060;-81
2024/01/31 07:27:57;;;;;;;8.18;2.38;;;5.10;99.90;;;;;;5031447;28;20037;-78
2024/01/31 07:30:22;;;;;;;8.88;2.65;;;5.10;99.90;;;;;;5024031;28;20163;-75
2024/01/31 07:32:48;;;;;;;5.43;2.50;;;5.10;99.90;;;;;;5024956;28;20076;-79
2024/01/31 07:35:14;;;;;;;9.85;3.50;;;5.10;99.90;;;;;;5020892;28;20136;-78
2024/01/31 07:37:40;;;;;;;7.55;2.58;;;5.10;99.90;;;;;;5029777;28;20331;-77
2024/01/31 07:40:06;;;;;;;6.93;2.35;;;5.10;99.90;;;;;;5030651;28;20435;-79
2024/01/31 07:42:32;;;;;;;8.95;2.50;;;5.10;99.90;;;;;;5063396;28;20048;-80
2024/01/31 07:44:58;;;;;;;11.77;2.30;;;5.10;99.90;;;;;;5030672;28;20095;-78
2024/01/31 07:47:24;;;;;;;8.85;2.30;;;5.10;99.90;;;;;;5025183;28;20050;-76
2024/01/31 07:49:50;;;;;;;6.90;2.30;;;5.10;99.90;;;;;;5031355;28;20100;-79
2024/01/31 07:52:15;;;;;;;7.15;2.35;;;5.10;99.90;;;;;;5043467;28;20068;-77
2024/01/31 07:54:41;;;;;;;7.40;2.08;;;5.10;99.90;;;;;;5028535;28;20049;-80
2024/01/31 07:57:07;;;;;;;9.02;1.85;;;5.20;99.90;;;;;;5028953;28;20484;-79
2024/01/31 07:59:35;;;;;;;16.00;2.30;;;5.20;99.90;;;;;;5020414;28;20046;-79
2024/01/31 08:02:00;;;;;;;7.63;1.92;;;5.20;99.90;;;;;;5025299;28;20056;-79
2024/01/31 08:04:26;;;;;;;8.85;2.70;;;5.20;99.90;;;;;;5035516;28;20430;-76
2024/01/31 08:06:52;;;;;;;8.18;2.50;;;5.20;99.90;;;;;;5026329;28;20098;-82
2024/01/31 08:09:18;;;;;;;8.07;2.40;;;5.20;99.90;;;;;;5026743;28;20327;-80
2024/01/31 08:11:45;;;;;;;8.27;2.55;;;5.20;99.90;;;;;;5028319;28;20518;-81
2024/01/31 08:14:11;;;;;;;8.18;2.38;;;5.20;99.90;;;;;;5060954;28;20124;-80
2024/01/31 08:16:37;;;;;;;10.05;2.63;;;5.20;99.90;;;;;;5025640;28;20510;-79
2024/01/31 08:19:03;;;;;;;6.80;2.03;;;5.30;99.90;;;;;;5028839;28;20109;-81
2024/01/31 08:21:31;;;;;;;10.73;2.25;;;5.20;99.90;;;;;;5025831;28;20046;-76
2024/01/31 08:23:57;;;;;;;8.00;2.45;;;5.30;99.90;;;;;;5043992;28;20057;-80
2024/01/31 08:26:23;;;;;;;8.88;2.10;;;5.30;99.90;;;;;;5028022;28;20049;-81
2024/01/31 08:28:49;;;;;;;8.90;2.58;;;5.30;99.90;;;;;;5026568;28;20045;-79
2024/01/31 08:31:14;;;;;;;3.63;2.05;;;5.30;99.90;;;;;;5026297;28;20045;-78
2024/01/31 08:33:40;;;;;;;5.38;2.30;;;5.30;99.90;;;;;;5028081;28;20064;-78
2024/01/31 08:36:06;;;;;;;5.28;2.10;;;5.40;99.90;;;;;;5034466;28;20074;-81
2024/01/31 08:38:32;;;;;;;7.38;2.70;;;5.40;99.90;;;;;;5025187;28;20100;-76
2024/01/31 08:40:57;;;;;;;8.13;2.80;;;5.40;99.90;;;;;;5069010;28;20100;-81
2024/01/31 08:43:23;;;;;;;5.35;2.22;;;5.50;99.90;;;;;;5031852;28;20425;-79
2024/01/31 08:45:49;;;;;;;7.40;2.70;;;5.40;99.90;;;;;;5031768;28;20123;-82
2024/01/31 08:48:14;;;;;;;8.43;2.72;;;5.50;99.90;;;;;;5043206;28;20123;-80
2024/01/31 08:50:40;;;;;;;9.63;3.10;;;5.50;99.90;;;;;;5051852;28;20329;-80
2024/01/31 08:53:06;;;;;;;8.38;2.90;;;5.50;99.90;;;;;;5008440;28;20038;-79
2024/01/31 08:55:31;;;;;;;8.23;3.30;;;5.50;99.90;;;;;;5040001;28;20136;-80
2024/01/31 08:57:57;;;;;;;9.77;4.25;;;5.60;99.90;;;;;;5032077;28;20125;-80
2024/01/31 09:00:23;;;;;;;8.18;3.38;;;5.60;99.90;;;;;;5030922;28;20045;-74
2024/01/31 09:02:48;;;;;;;7.15;3.20;;;5.60;99.90;;;;;;5026344;28;20125;-80
2024/01/31 09:05:14;;;;;;;7.35;3.38;;;5.60;99.90;;;;;;5038452;28;20053;-80
2024/01/31 09:07:39;;;;;;;5.45;3.25;;;5.70;99.90;;;;;;5046111;28;20029;-80
2024/01/31 09:10:06;;;;;;;6.82;3.33;;;5.70;99.90;;;;;;5030763;28;20091;-79
2024/01/31 09:12:32;;;;;;;6.55;3.40;;;5.80;99.90;;;;;;5029410;28;20137;-79
2024/01/31 09:14:57;;;;;;;8.00;3.50;;;5.80;99.90;;;;;;5027684;28;20479;-80
2024/01/31 09:17:23;;;;;;;8.85;3.70;;;5.80;99.90;;;;;;5027481;28;20037;-79
2024/01/31 09:19:49;;;;;;;5.38;3.45;;;5.90;99.90;;;;;;5032676;28;20041;-80
2024/01/31 09:22:15;;;;;;;7.32;3.70;;;5.90;99.90;;;;;;5031484;28;20550;-79
2024/01/31 09:24:40;;;;;;;7.22;3.67;;;6.00;99.90;;;;;;5028507;28;20068;-79
2024/01/31 09:27:06;;;;;;;8.20;3.40;;;5.90;99.90;;;;;;5015477;28;20037;-79
2024/01/31 09:29:32;;;;;;;6.47;3.45;;;6.00;99.90;;;;;;5018885;28;20532;-78
2024/01/31 09:31:59;;;;;;;7.75;3.83;;;6.00;99.90;;;;;;5052999;28;20105;-76
2024/01/31 09:34:25;;;;;;;6.50;3.80;;;6.00;99.90;;;;;;5016187;28;20053;-77
2024/01/31 09:36:51;;;;;;;8.05;3.50;;;6.00;99.90;;;;;;5052574;28;20030;-81
2024/01/31 09:39:16;;;;;;;7.75;4.18;;;6.00;99.90;;;;;;5018356;28;20363;-82
2024/01/31 09:41:42;;;;;;;9.98;4.18;;;6.00;99.90;;;;;;5020919;28;20038;-80
2024/01/31 09:44:09;;;;;;;5.10;4.07;;;6.00;99.90;;;;;;5032290;28;20124;-80
2024/01/31 09:46:36;;;;;;;8.32;4.25;;;6.10;99.90;;;;;;5047278;28;20466;-81
2024/01/31 09:49:01;;;;;;;8.20;4.50;;;6.10;99.90;;;;;;5031603;28;20989;-80
2024/01/31 09:51:29;;;;;;;10.65;4.85;;;6.10;99.90;;;;;;5013544;28;20049;-82
2024/01/31 09:54:00;;;;;;;8.02;5.30;;;6.10;99.90;;;;;;5025159;28;20053;-81
2024/01/31 10:55:25;;;;;;;10.35;8.20;;;6.60;99.90;;;;;;5075968;27;20368;-75
2024/01/31 10:57:51;;;;;;;10.70;8.65;;;6.60;99.90;;;;;;5071679;28;20110;-74
2024/01/31 11:00:30;;;;;;;10.27;8.05;;;6.70;99.90;;;;;;5077295;28;20443;-72
2024/01/31 11:02:57;;;;;;;11.02;7.85;;;6.80;99.90;;;;;;5056588;28;20057;-74
2024/01/31 11:05:25;;;;;;;10.43;7.93;;;6.70;99.90;;;;;;5061694;28;20048;-72
2024/01/31 11:07:51;;;;;;;9.40;7.55;;;6.80;99.90;;;;;;5077077;28;20056;-72
2024/01/31 11:10:20;;;;;;;12.95;6.90;;;6.80;99.90;;;;;;5077201;28;20379;-73
2024/01/31 11:13:01;;;;;;;12.63;6.47;;;6.80;99.90;;;;;;5075061;28;20083;-74
2024/01/31 11:15:31;;;;;;;9.55;6.80;;;6.80;99.90;;;;;;5066927;28;20127;-73
2024/01/31 11:18:15;;;;;;;9.82;6.72;;;6.80;99.90;;;;;;5062014;28;20090;-73
2024/01/31 11:20:49;;;;;;;10.15;6.32;;;6.80;99.90;;;;;;5065174;28;20074;-75
2024/01/31 11:23:23;;;;;;;9.35;6.50;;;6.90;99.90;;;;;;5063398;28;20370;-76
2024/01/31 11:25:50;;;;;;;8.73;5.88;;;6.90;99.90;;;;;;5066195;28;20049;-73
2024/01/31 11:28:17;;;;;;;8.50;5.65;;;6.90;99.90;;;;;;5054529;28;20040;-73
2024/01/31 11:30:43;;;;;;;10.27;6.25;;;6.90;99.90;;;;;;5067453;28;20048;-73
2024/01/31 11:33:09;;;;;;;8.80;6.07;;;7.00;99.90;;;;;;5065664;28;20412;-73
2024/01/31 11:35:35;;;;;;;7.95;5.30;;;7.00;99.90;;;;;;5072205;28;20135;-74
2024/01/31 11:38:01;;;;;;;9.23;5.63;;;7.00;99.90;;;;;;5060278;28;20044;-74
2024/01/31 11:40:28;;;;;;;6.78;5.10;;;7.10;99.90;;;;;;5067580;28;20044;-74
2024/01/31 11:42:54;;;;;;;6.25;4.63;;;7.10;99.90;;;;;;5067743;28;20389;-75
2024/01/31 11:45:27;;;;;;;8.10;5.35;;;7.10;99.90;;;;;;5067912;28;20119;-75
2024/01/31 11:47:57;;;;;;;8.82;5.32;;;7.10;99.90;;;;;;5067490;28;20548;-75
2024/01/31 11:50:25;;;;;;;8.38;4.43;;;7.10;99.90;;;;;;5068993;28;20384;-76
2024/01/31 11:52:51;;;;;;;7.00;4.57;;;7.10;99.90;;;;;;5068048;28;20123;-74
2024/01/31 11:55:22;;;;;;;6.63;4.35;;;7.10;99.90;;;;;;5059107;28;20045;-73
2024/01/31 11:57:48;;;;;;;7.60;4.82;;;7.20;99.90;;;;;;5074332;28;20060;-75
2024/01/31 12:00:16;;;;;;;7.35;5.05;;;7.10;99.90;;;;;;5076033;28;20406;-74
2024/01/31 12:02:43;;;;;;;7.00;4.60;;;7.10;99.90;;;;;;5068725;28;20059;-78
2024/01/31 12:05:09;;;;;;;6.50;4.28;;;7.10;99.90;;;;;;5062973;28;20412;-76
2024/01/31 12:07:38;;;;;;;6.63;4.43;;;7.10;99.90;;;;;;5059346;28;20048;-78
2024/01/31 12:10:07;;;;;;;6.70;4.50;;;7.10;99.90;;;;;;5054259;28;20055;-79
2024/01/31 12:12:41;;;;;;;5.70;4.22;;;7.10;99.90;;;;;;5054986;28;20052;-77
2024/01/31 12:15:11;;;;;;;6.47;4.77;;;7.10;99.90;;;;;;5053263;28;20045;-78
2024/01/31 12:17:38;;;;;;;7.88;5.07;;;7.10;99.90;;;;;;5048388;28;20045;-79
2024/01/31 12:20:05;;;;;;;6.68;5.00;;;7.10;99.90;;;;;;5052308;28;20060;-78
2024/01/31 12:22:36;;;;;;;8.73;5.07;;;7.10;99.90;;;;;;5055099;28;20049;-78
2024/01/31 12:25:02;;;;;;;6.60;4.65;;;7.10;99.90;;;;;;5052398;28;20056;-76
2024/01/31 12:27:28;;;;;;;7.30;4.75;;;7.10;99.90;;;;;;5024788;28;20045;-79
2024/01/31 12:29:54;;;;;;;6.85;4.53;;;7.10;99.90;;;;;;5050915;28;20135;-78
2024/01/31 12:32:19;;;;;;;6.47;4.78;;;7.10;99.90;;;;;;5052392;28;20053;-78
2024/01/31 12:34:45;;;;;;;8.02;4.70;;;7.10;99.90;;;;;;5053726;28;20040;-78
2024/01/31 12:37:11;;;;;;;8.15;5.18;;;7.10;99.90;;;;;;5060869;28;20053;-79
2024/01/31 12:39:37;;;;;;;7.45;4.78;;;7.10;99.90;;;;;;5052238;28;20482;-77
2024/01/31 12:42:03;;;;;;;6.57;4.57;;;7.00;99.90;;;;;;5051691;28;20037;-77
2024/01/31 12:44:30;;;;;;;5.65;4.20;;;7.10;99.90;;;;;;5053301;28;20045;-78
2024/01/31 12:46:56;;;;;;;5.78;3.95;;;7.10;99.90;;;;;;5036866;28;20080;-79
2024/01/31 12:49:22;;;;;;;6.15;4.60;;;7.10;99.90;;;;;;5053029;28;20367;-78
2024/01/31 12:51:49;;;;;;;8.45;4.85;;;7.10;99.90;;;;;;5052289;28;20048;-78
2024/01/31 12:54:15;;;;;;;6.50;4.85;;;7.10;99.90;;;;;;5051494;28;20072;-79
2024/01/31 12:56:41;;;;;;;7.10;5.22;;;7.10;99.90;;;;;;5053236;28;20049;-78
2024/01/31 12:59:07;;;;;;;7.95;5.47;;;7.10;99.90;;;;;;5057330;28;20045;-78
2024/01/31 13:01:33;;;;;;;7.72;5.43;;;7.10;99.90;;;;;;5039357;28;20049;-78
2024/01/31 13:03:59;;;;;;;7.68;5.60;;;7.20;99.90;;;;;;5052360;28;20041;-78
2024/01/31 13:06:25;;;;;;;6.15;4.30;;;7.20;99.90;;;;;;5053102;28;20045;-79
2024/01/31 13:08:50;;;;;;;8.50;5.88;;;7.20;99.90;;;;;;5051570;28;20044;-78
2024/01/31 13:11:16;;;;;;;7.93;5.60;;;7.20;99.90;;;;;;5052547;28;20044;-78
2024/01/31 13:13:44;;;;;;;7.25;5.47;;;7.20;99.90;;;;;;5035901;28;20045;-87
2024/01/31 13:16:09;;;;;;;8.70;5.80;;;7.20;99.90;;;;;;5047176;28;20502;-78
2024/01/31 13:18:36;;;;;;;7.65;5.57;;;7.30;99.90;;;;;;5057713;28;20084;-83
2024/01/31 13:21:01;;;;;;;8.20;6.05;;;7.30;99.90;;;;;;5060506;28;20088;-83
2024/01/31 13:23:27;;;;;;;7.80;5.90;;;7.30;99.90;;;;;;5053726;28;20081;-81
2024/01/31 13:25:53;;;;;;;8.15;5.63;;;7.30;99.90;;;;;;5050607;28;20549;-83
2024/01/31 13:28:18;;;;;;;7.78;5.80;;;7.40;99.90;;;;;;5051633;28;20137;-84
2024/01/31 13:30:44;;;;;;;8.75;6.55;;;7.30;99.90;;;;;;5063860;28;20044;-85
2024/01/31 13:33:10;;;;;;;8.05;5.25;;;7.30;99.90;;;;;;5047437;28;20401;-78
2024/01/31 13:35:36;;;;;;;8.10;6.13;;;7.30;99.90;;;;;;5067116;28;20048;-84
2024/01/31 13:38:02;;;;;;;8.10;6.60;;;7.40;99.90;;;;;;5058961;28;20051;-84
2024/01/31 13:40:29;;;;;;;7.80;6.22;;;7.40;99.90;;;;;;5061181;28;20044;-82
2024/01/31 13:42:56;;;;;;;7.65;5.30;;;7.40;99.90;;;;;;5061168;28;20045;-82
2024/01/31 13:45:22;;;;;;;7.13;5.22;;;7.30;99.90;;;;;;5056503;28;20118;-84
2024/01/31 13:47:48;;;;;;;8.90;6.80;;;7.40;99.90;;;;;;5053182;28;20056;-84
2024/01/31 13:50:14;;;;;;;9.60;6.78;;;7.40;99.90;;;;;;5050834;28;20051;-81